Time;durP1;ratioP1;P1;durP2;ratioP2;P2;SDS_P1;SDS_P2;PMS_P1;PMS_P2;Temp;Humidity;BMP_temperature;BMP_pressure;BME280_temperature;BME280_humidity;BME280_pressure;Samples;Min_cycle;Max_cycle;Signal;HPM_P1;HPM_P2
2024/01/07 00:01:49;;;;;;;10.70;7.85;;;4.20;99.90;;;;;;5019339;28;20026;-64
2024/01/07 00:04:15;;;;;;;10.70;6.85;;;4.20;99.90;;;;;;5022203;28;20401;-64
2024/01/07 00:06:41;;;;;;;9.13;6.53;;;4.10;99.90;;;;;;5020772;28;20030;-64
2024/01/07 00:09:06;;;;;;;8.75;7.05;;;4.10;99.90;;;;;;5019357;28;20088;-64
2024/01/07 00:11:32;;;;;;;10.35;7.55;;;4.10;99.90;;;;;;5021547;28;20490;-66
2024/01/07 00:13:58;;;;;;;10.93;7.93;;;4.10;99.90;;;;;;5017393;28;20077;-64
2024/01/07 00:16:23;;;;;;;9.98;7.60;;;4.00;99.90;;;;;;5017754;28;20034;-66
2024/01/07 00:18:49;;;;;;;12.05;9.32;;;4.10;99.90;;;;;;5018548;28;20034;-64
2024/01/07 00:21:15;;;;;;;9.30;7.25;;;4.00;99.90;;;;;;5017034;28;20026;-64
2024/01/07 00:23:40;;;;;;;12.65;8.57;;;4.00;99.90;;;;;;5018064;28;20021;-64
2024/01/07 00:26:06;;;;;;;9.32;7.53;;;4.00;99.90;;;;;;5021053;28;20030;-65
2024/01/07 00:28:32;;;;;;;12.13;8.20;;;4.00;99.90;;;;;;5020274;28;20032;-66
2024/01/07 00:30:58;;;;;;;11.60;7.30;;;4.00;99.90;;;;;;5021010;28;20108;-67
2024/01/07 00:33:23;;;;;;;8.20;6.72;;;4.00;99.90;;;;;;5020407;28;20026;-64
2024/01/07 00:35:49;;;;;;;8.82;5.45;;;4.00;99.90;;;;;;5021534;28;20029;-63
2024/01/07 00:38:14;;;;;;;8.70;7.07;;;3.90;99.90;;;;;;5021983;28;20025;-64
2024/01/07 00:40:40;;;;;;;8.45;6.25;;;3.80;99.90;;;;;;5019905;28;20084;-66
2024/01/07 00:43:06;;;;;;;8.65;6.93;;;3.80;99.90;;;;;;5022113;28;20017;-64
2024/01/07 00:45:31;;;;;;;8.93;6.90;;;3.70;99.90;;;;;;5019213;28;20041;-65
2024/01/07 00:47:57;;;;;;;8.98;7.43;;;3.70;99.90;;;;;;5018944;28;20108;-66
2024/01/07 00:50:22;;;;;;;7.75;6.25;;;3.70;99.90;;;;;;5018965;28;20532;-65
2024/01/07 00:52:48;;;;;;;8.90;7.47;;;3.70;99.90;;;;;;5019960;28;20394;-64
2024/01/07 00:55:14;;;;;;;8.75;6.35;;;3.70;99.90;;;;;;5020466;28;20732;-64
2024/01/07 00:57:40;;;;;;;9.35;7.05;;;3.70;99.90;;;;;;5018987;28;20041;-64
2024/01/07 01:00:06;;;;;;;6.80;5.10;;;3.60;99.90;;;;;;5016790;28;20018;-64
2024/01/07 01:02:32;;;;;;;8.88;6.55;;;3.60;99.90;;;;;;5020287;28;20026;-64
2024/01/07 01:04:58;;;;;;;8.70;6.57;;;3.60;99.90;;;;;;5017702;28;20401;-63
2024/01/07 01:07:23;;;;;;;9.82;6.53;;;3.50;99.90;;;;;;5020618;28;20393;-66
2024/01/07 01:09:49;;;;;;;8.57;6.53;;;3.50;99.90;;;;;;5021739;28;20042;-66
2024/01/07 01:12:15;;;;;;;9.90;7.55;;;3.50;99.90;;;;;;5018260;28;20034;-66
2024/01/07 01:14:41;;;;;;;8.45;6.53;;;3.50;99.90;;;;;;5021314;28;20025;-63
2024/01/07 01:17:07;;;;;;;7.13;5.80;;;3.50;99.90;;;;;;5019658;28;20034;-64
2024/01/07 01:19:32;;;;;;;8.20;6.82;;;3.50;99.90;;;;;;5022025;28;20044;-64
2024/01/07 01:21:58;;;;;;;8.23;5.88;;;3.50;99.90;;;;;;5019522;28;20068;-64
2024/01/07 01:24:24;;;;;;;10.68;7.30;;;3.50;99.90;;;;;;5019183;28;20549;-65
2024/01/07 01:26:49;;;;;;;8.95;6.57;;;3.50;99.90;;;;;;5017626;28;20037;-64
2024/01/07 01:29:15;;;;;;;10.00;7.45;;;3.50;99.90;;;;;;5018266;28;20021;-64
2024/01/07 01:31:40;;;;;;;10.38;7.53;;;3.50;99.90;;;;;;5018310;28;20056;-64
2024/01/07 01:34:06;;;;;;;9.85;6.65;;;3.50;99.90;;;;;;5018261;28;20018;-65
2024/01/07 01:36:32;;;;;;;10.70;6.75;;;3.50;99.90;;;;;;5019949;28;20107;-65
2024/01/07 01:38:57;;;;;;;9.30;7.45;;;3.50;99.90;;;;;;5021987;28;20497;-64
2024/01/07 01:41:23;;;;;;;10.68;7.22;;;3.40;99.90;;;;;;5019345;28;20034;-64
2024/01/07 01:43:49;;;;;;;12.63;8.25;;;3.40;99.90;;;;;;5019564;28;20605;-65
2024/01/07 01:46:15;;;;;;;10.68;8.07;;;3.40;99.90;;;;;;5020351;28;20072;-64
2024/01/07 01:48:42;;;;;;;9.45;6.30;;;3.40;99.90;;;;;;5018882;28;20087;-65
2024/01/07 01:51:07;;;;;;;11.80;8.50;;;3.40;99.90;;;;;;5019186;28;20018;-63
2024/01/07 01:53:33;;;;;;;13.20;9.55;;;3.40;99.90;;;;;;5019319;28;20030;-65
2024/01/07 01:56:04;;;;;;;11.75;8.23;;;3.30;99.90;;;;;;5017274;28;20037;-65
2024/01/07 01:58:30;;;;;;;10.35;6.97;;;3.30;99.90;;;;;;5021307;28;20030;-65
2024/01/07 02:00:56;;;;;;;12.13;8.30;;;3.30;99.90;;;;;;5020227;28;20014;-64
2024/01/07 02:03:22;;;;;;;10.68;8.23;;;3.30;99.90;;;;;;5021118;28;20029;-63
2024/01/07 02:05:50;;;;;;;9.63;7.53;;;3.30;99.90;;;;;;5018362;28;20025;-64
2024/01/07 02:08:17;;;;;;;13.63;8.13;;;3.20;99.90;;;;;;5020792;28;20631;-65
2024/01/07 02:10:43;;;;;;;11.98;7.97;;;3.20;99.90;;;;;;5019561;28;20045;-63
2024/01/07 02:13:08;;;;;;;12.02;7.90;;;3.20;99.90;;;;;;5021815;28;20024;-64
2024/01/07 02:15:34;;;;;;;13.20;7.75;;;3.10;99.90;;;;;;5018886;28;20441;-64
2024/01/07 02:18:00;;;;;;;9.23;6.82;;;3.10;99.90;;;;;;5016986;28;20030;-65
2024/01/07 02:20:26;;;;;;;11.52;7.88;;;3.10;99.90;;;;;;5020399;28;20029;-66
2024/01/07 02:22:51;;;;;;;10.55;6.95;;;3.10;99.90;;;;;;5019484;28;20486;-65
2024/01/07 02:25:17;;;;;;;10.07;7.20;;;3.10;99.90;;;;;;5019352;28;20022;-64
2024/01/07 02:27:43;;;;;;;10.85;6.57;;;3.00;99.90;;;;;;5020905;28;20037;-63
2024/01/07 02:30:09;;;;;;;9.57;7.00;;;3.00;99.90;;;;;;5019988;28;20026;-64
2024/01/07 02:32:35;;;;;;;8.23;6.22;;;3.00;99.90;;;;;;5021621;28;20030;-65
2024/01/07 02:35:01;;;;;;;9.93;7.70;;;2.90;99.90;;;;;;5015283;28;20425;-65
2024/01/07 02:37:27;;;;;;;9.98;7.80;;;2.90;99.90;;;;;;5020546;28;20494;-66
2024/01/07 02:39:53;;;;;;;10.18;7.68;;;2.90;99.90;;;;;;5022457;28;20020;-64
2024/01/07 02:42:18;;;;;;;7.93;6.30;;;2.90;99.90;;;;;;5021481;28;20026;-65
2024/01/07 02:44:44;;;;;;;11.00;6.78;;;2.80;99.90;;;;;;5018558;28;20044;-67
2024/01/07 02:47:09;;;;;;;10.98;6.68;;;2.80;99.90;;;;;;5023466;28;20393;-64
2024/01/07 02:49:35;;;;;;;8.65;6.32;;;2.80;99.90;;;;;;5019707;28;20439;-65
2024/01/07 02:52:01;;;;;;;8.88;5.60;;;2.70;99.90;;;;;;5022721;28;20018;-63
2024/01/07 02:54:26;;;;;;;10.38;7.07;;;2.70;99.90;;;;;;5019312;28;20018;-65
2024/01/07 02:56:52;;;;;;;10.82;7.13;;;2.60;99.90;;;;;;5023171;28;20190;-63
2024/01/07 02:59:18;;;;;;;8.32;6.63;;;2.60;99.90;;;;;;5021734;28;20494;-63
2024/01/07 03:01:43;;;;;;;10.30;7.80;;;2.60;99.90;;;;;;5024437;28;20084;-63
2024/01/07 03:04:11;;;;;;;7.70;6.28;;;2.50;99.90;;;;;;5023316;28;20025;-65
2024/01/07 03:06:36;;;;;;;9.95;5.95;;;2.50;99.90;;;;;;5020288;28;20517;-63
2024/01/07 03:09:02;;;;;;;6.53;5.28;;;2.50;99.90;;;;;;5022573;28;20034;-65
2024/01/07 03:11:29;;;;;;;8.07;6.00;;;2.50;99.90;;;;;;5023493;28;20022;-64
2024/01/07 03:13:55;;;;;;;9.93;6.53;;;2.50;99.90;;;;;;5019818;28;20047;-65
2024/01/07 03:16:22;;;;;;;7.18;5.78;;;2.50;99.90;;;;;;5023353;28;20037;-66
2024/01/07 03:18:47;;;;;;;7.38;5.82;;;2.50;99.90;;;;;;5023080;28;20029;-63
2024/01/07 03:21:20;;;;;;;9.38;6.18;;;2.50;99.90;;;;;;5019137;28;20390;-65
2024/01/07 03:23:47;;;;;;;10.00;5.80;;;2.40;99.90;;;;;;5022816;28;20080;-64
2024/01/07 03:26:13;;;;;;;7.50;5.85;;;2.40;99.90;;;;;;5020817;28;20101;-65
2024/01/07 03:28:38;;;;;;;7.07;5.53;;;2.40;99.90;;;;;;5020420;28;20026;-63
2024/01/07 03:31:09;;;;;;;8.82;5.85;;;2.40;99.90;;;;;;5025546;28;20389;-64
2024/01/07 03:33:36;;;;;;;9.05;5.78;;;2.40;99.90;;;;;;5022770;28;20028;-65
2024/01/07 03:36:10;;;;;;;7.55;5.07;;;2.30;99.90;;;;;;5023689;28;20030;-65
2024/01/07 03:38:36;;;;;;;7.93;4.72;;;2.30;99.90;;;;;;5037794;28;20042;-64
2024/01/07 03:41:02;;;;;;;8.38;5.88;;;2.30;99.90;;;;;;5023431;28;20116;-65
2024/01/07 03:43:28;;;;;;;7.43;4.97;;;2.30;99.90;;;;;;5021774;28;20039;-64
2024/01/07 03:45:54;;;;;;;7.82;6.10;;;2.30;99.90;;;;;;5020333;28;20029;-66
2024/01/07 03:48:19;;;;;;;8.55;5.78;;;2.30;99.90;;;;;;5022385;28;20053;-64
2024/01/07 03:50:45;;;;;;;7.68;5.68;;;2.30;99.90;;;;;;5023195;28;20494;-64
2024/01/07 03:53:11;;;;;;;9.38;6.22;;;2.20;99.90;;;;;;5020622;28;20072;-65
2024/01/07 03:55:36;;;;;;;9.82;6.85;;;2.20;99.90;;;;;;5020904;28;20030;-64
2024/01/07 03:58:03;;;;;;;10.02;6.43;;;2.20;99.90;;;;;;5022579;28;20052;-65
2024/01/07 04:00:28;;;;;;;10.70;7.50;;;2.20;99.90;;;;;;5023532;28;20041;-65
2024/01/07 04:02:54;;;;;;;11.32;6.45;;;2.20;99.90;;;;;;5022997;28;20025;-64
2024/01/07 04:05:20;;;;;;;8.27;6.05;;;2.30;99.90;;;;;;5019516;28;20034;-64
2024/01/07 04:07:45;;;;;;;8.25;6.43;;;2.20;99.90;;;;;;5022207;28;20038;-64
2024/01/07 04:10:11;;;;;;;8.15;6.60;;;2.20;99.90;;;;;;5022945;28;20029;-65
2024/01/07 04:12:37;;;;;;;9.70;7.35;;;2.20;99.90;;;;;;5022240;28;20022;-65
2024/01/07 04:15:03;;;;;;;9.93;6.65;;;2.30;99.90;;;;;;5020641;28;20109;-65
2024/01/07 04:17:29;;;;;;;10.02;7.35;;;2.20;99.90;;;;;;5021821;28;20037;-67
2024/01/07 04:19:55;;;;;;;8.35;6.30;;;2.20;99.90;;;;;;5023557;28;20025;-64
2024/01/07 04:22:21;;;;;;;10.20;7.22;;;2.30;99.90;;;;;;5024018;28;20382;-64
2024/01/07 04:24:46;;;;;;;9.48;6.40;;;2.20;99.90;;;;;;5019205;28;20029;-63
2024/01/07 04:27:12;;;;;;;9.60;7.63;;;2.20;99.90;;;;;;5022296;28;20029;-65
2024/01/07 04:29:37;;;;;;;13.43;7.70;;;2.20;99.90;;;;;;5021474;28;20022;-64
2024/01/07 04:32:03;;;;;;;11.40;8.23;;;2.20;99.90;;;;;;5022063;28;20022;-66
2024/01/07 04:34:29;;;;;;;12.35;8.48;;;2.20;99.90;;;;;;5020590;28;20187;-65
2024/01/07 04:36:55;;;;;;;11.18;7.97;;;2.10;99.90;;;;;;5020873;28;20036;-64
2024/01/07 04:39:20;;;;;;;14.35;8.63;;;2.00;99.90;;;;;;5022183;28;20061;-63
2024/01/07 04:41:46;;;;;;;11.38;7.05;;;2.00;99.90;;;;;;5018517;28;20446;-63
2024/01/07 04:44:12;;;;;;;11.52;8.40;;;1.90;99.90;;;;;;5021015;28;20033;-65
2024/01/07 04:46:38;;;;;;;12.63;9.90;;;1.90;99.90;;;;;;5020393;28;20018;-64
2024/01/07 04:49:05;;;;;;;12.27;8.85;;;1.90;99.90;;;;;;5018721;28;20024;-64
2024/01/07 04:51:31;;;;;;;14.43;9.55;;;1.80;99.90;;;;;;5019821;28;20026;-65
2024/01/07 04:53:57;;;;;;;15.43;10.07;;;1.80;99.90;;;;;;5018646;28;20026;-65
2024/01/07 04:56:22;;;;;;;13.52;9.85;;;1.80;99.90;;;;;;5019173;28;20781;-65
2024/01/07 04:58:48;;;;;;;11.57;9.43;;;1.80;99.90;;;;;;5020696;28;20551;-66
2024/01/07 05:01:14;;;;;;;14.40;9.55;;;1.80;99.90;;;;;;5019464;28;20026;-65
2024/01/07 05:03:39;;;;;;;14.05;8.98;;;1.80;99.90;;;;;;5022439;28;20414;-64
2024/01/07 05:06:05;;;;;;;16.67;10.20;;;1.80;99.90;;;;;;5023576;28;20482;-64
2024/01/07 05:08:31;;;;;;;16.08;10.75;;;1.80;99.90;;;;;;5020316;28;20029;-65
2024/01/07 05:10:56;;;;;;;14.65;8.85;;;1.80;99.90;;;;;;5022675;28;20132;-66
2024/01/07 05:13:22;;;;;;;13.52;9.68;;;1.80;99.90;;;;;;5019709;28;20029;-64
2024/01/07 05:15:53;;;;;;;14.32;9.52;;;1.80;99.90;;;;;;5018555;28;20038;-65
2024/01/07 05:18:24;;;;;;;15.30;10.05;;;1.80;99.90;;;;;;5019376;28;20033;-64
2024/01/07 05:20:50;;;;;;;12.85;9.07;;;1.80;99.90;;;;;;5020090;28;20029;-64
2024/01/07 05:23:16;;;;;;;15.75;10.27;;;1.70;99.90;;;;;;5019733;28;20116;-66
2024/01/07 05:25:45;;;;;;;13.60;10.55;;;1.70;99.90;;;;;;5021652;28;20109;-63
2024/01/07 05:28:14;;;;;;;14.07;10.27;;;1.70;99.90;;;;;;5019296;28;20026;-63
2024/01/07 05:30:41;;;;;;;17.55;10.57;;;1.70;99.90;;;;;;5018921;28;20053;-65
2024/01/07 05:33:06;;;;;;;15.23;10.25;;;1.60;99.90;;;;;;5017891;28;20490;-63
2024/01/07 05:35:32;;;;;;;16.02;11.43;;;1.60;99.90;;;;;;5019315;28;20087;-64
2024/01/07 05:37:58;;;;;;;15.57;11.32;;;1.60;99.90;;;;;;5019590;28;20088;-65
2024/01/07 05:40:24;;;;;;;16.77;11.60;;;1.60;99.90;;;;;;5022981;28;20040;-66
2024/01/07 05:42:49;;;;;;;15.10;11.27;;;1.60;99.90;;;;;;5018466;28;20034;-64
2024/01/07 05:45:15;;;;;;;17.17;11.88;;;1.60;99.90;;;;;;5018643;28;20050;-63
2024/01/07 05:47:40;;;;;;;12.60;9.50;;;1.60;99.90;;;;;;5020203;28;20056;-63
2024/01/07 05:50:07;;;;;;;14.75;11.05;;;1.60;99.90;;;;;;5020406;28;20427;-64
2024/01/07 05:52:33;;;;;;;13.95;10.15;;;1.60;99.90;;;;;;5019385;28;20018;-64
2024/01/07 05:54:59;;;;;;;15.13;10.43;;;1.60;99.90;;;;;;5018782;28;20026;-63
2024/01/07 05:57:25;;;;;;;16.08;12.00;;;1.60;99.90;;;;;;5018839;28;20390;-65
2024/01/07 05:59:51;;;;;;;17.90;10.32;;;1.60;99.90;;;;;;5017093;28;20038;-63
2024/01/07 06:02:17;;;;;;;14.63;10.63;;;1.60;99.90;;;;;;5019060;28;20034;-64
2024/01/07 06:04:43;;;;;;;18.55;13.38;;;1.60;99.90;;;;;;5021702;28;20037;-64
2024/01/07 06:07:09;;;;;;;13.30;10.13;;;1.50;99.90;;;;;;5016790;28;20022;-64
2024/01/07 06:09:35;;;;;;;14.70;10.20;;;1.50;99.90;;;;;;5018399;28;20021;-65
2024/01/07 06:12:01;;;;;;;14.98;10.98;;;1.50;99.90;;;;;;5017929;28;20079;-68
2024/01/07 06:14:26;;;;;;;13.18;10.50;;;1.50;99.90;;;;;;5019218;28;20044;-65
2024/01/07 06:16:52;;;;;;;12.77;10.23;;;1.40;99.90;;;;;;5020765;28;20506;-64
2024/01/07 06:19:18;;;;;;;18.92;11.60;;;1.30;99.90;;;;;;5025444;28;20643;-64
2024/01/07 06:21:44;;;;;;;14.77;10.52;;;1.30;99.90;;;;;;5024220;28;20025;-63
2024/01/07 06:24:10;;;;;;;14.18;9.85;;;1.30;99.90;;;;;;5021515;28;20036;-63
2024/01/07 06:26:36;;;;;;;13.02;10.32;;;1.20;99.90;;;;;;5028467;28;20028;-63
2024/01/07 06:29:02;;;;;;;18.08;10.98;;;1.10;99.90;;;;;;5024119;28;20028;-64
2024/01/07 06:31:27;;;;;;;17.52;10.30;;;1.10;99.90;;;;;;5024187;28;20026;-64
2024/01/07 06:33:55;;;;;;;17.83;11.38;;;1.10;99.90;;;;;;5022661;28;20021;-64
2024/01/07 06:36:21;;;;;;;17.63;11.30;;;1.10;99.90;;;;;;5023037;28;20459;-63
2024/01/07 06:38:48;;;;;;;16.92;12.43;;;1.10;99.90;;;;;;5022260;28;20061;-65
2024/01/07 06:41:14;;;;;;;14.00;9.55;;;1.10;99.90;;;;;;5021410;28;20433;-63
2024/01/07 06:43:40;;;;;;;23.95;13.82;;;1.10;99.90;;;;;;5020251;28;20037;-64
2024/01/07 06:46:05;;;;;;;30.27;16.25;;;1.10;99.90;;;;;;5023295;28;20033;-65
2024/01/07 06:48:31;;;;;;;15.32;12.05;;;1.10;99.90;;;;;;5023863;28;20113;-63
2024/01/07 06:50:57;;;;;;;17.90;10.60;;;1.00;99.90;;;;;;5020320;28;20482;-62
2024/01/07 06:53:23;;;;;;;15.63;11.00;;;1.00;99.90;;;;;;5022227;28;20033;-63
2024/01/07 06:55:48;;;;;;;15.55;10.48;;;0.90;99.90;;;;;;5022696;28;20494;-64
2024/01/07 06:58:14;;;;;;;16.73;9.50;;;0.80;99.90;;;;;;5020156;28;20031;-63
2024/01/07 07:00:40;;;;;;;17.95;10.90;;;0.70;99.90;;;;;;5021337;28;20061;-65
2024/01/07 07:03:06;;;;;;;10.32;7.63;;;0.60;99.90;;;;;;5021847;28;20451;-62
2024/01/07 07:05:32;;;;;;;17.05;11.52;;;0.60;99.90;;;;;;5020555;28;20022;-64
2024/01/07 07:07:58;;;;;;;15.75;12.48;;;0.60;99.90;;;;;;5024374;28;20478;-64
2024/01/07 07:10:23;;;;;;;14.30;8.55;;;0.60;99.90;;;;;;5024651;28;20631;-63
2024/01/07 07:12:50;;;;;;;17.15;8.68;;;0.60;99.90;;;;;;5020720;28;20034;-63
2024/01/07 07:15:16;;;;;;;15.15;10.02;;;0.60;99.90;;;;;;5022161;28;20026;-63
2024/01/07 07:17:42;;;;;;;15.05;9.55;;;0.60;99.90;;;;;;5022047;28;20580;-63
2024/01/07 07:20:09;;;;;;;30.80;16.83;;;0.60;99.90;;;;;;5021992;28;20022;-63
2024/01/07 07:22:34;;;;;;;25.88;16.50;;;0.50;99.90;;;;;;5021112;28;20080;-63
2024/01/07 07:25:00;;;;;;;18.30;13.35;;;0.50;99.90;;;;;;5022769;28;20022;-64
2024/01/07 07:27:26;;;;;;;17.67;13.45;;;0.40;99.90;;;;;;5020925;28;20034;-62
2024/01/07 07:29:51;;;;;;;15.45;11.35;;;0.40;99.90;;;;;;5024195;28;20457;-62
2024/01/07 07:32:18;;;;;;;17.45;12.60;;;0.40;99.90;;;;;;5021004;28;20581;-64
2024/01/07 07:34:43;;;;;;;17.60;13.25;;;0.30;99.90;;;;;;5019707;28;20049;-64
2024/01/07 07:37:09;;;;;;;18.77;13.25;;;0.30;99.90;;;;;;5023286;28;20109;-65
2024/01/07 07:39:35;;;;;;;19.75;13.88;;;0.30;99.90;;;;;;5023976;28;20030;-65
2024/01/07 07:42:01;;;;;;;20.00;11.85;;;0.30;99.90;;;;;;5023973;28;20060;-64
2024/01/07 07:44:26;;;;;;;36.38;19.00;;;0.20;99.90;;;;;;5024159;28;20037;-63
2024/01/07 07:46:52;;;;;;;20.00;14.85;;;0.30;99.90;;;;;;5020177;28;20103;-63
2024/01/07 07:49:18;;;;;;;23.52;15.07;;;0.30;99.90;;;;;;5022215;28;20036;-64
2024/01/07 07:51:44;;;;;;;24.92;16.40;;;0.30;99.90;;;;;;5020970;28;20486;-63
2024/01/07 07:54:09;;;;;;;23.35;15.10;;;0.20;99.90;;;;;;5019900;28;20402;-65
2024/01/07 07:56:35;;;;;;;26.80;17.52;;;0.30;99.90;;;;;;5019941;28;20116;-63
2024/01/07 07:59:02;;;;;;;23.02;13.40;;;0.30;99.90;;;;;;5017347;28;20498;-64
2024/01/07 08:01:28;;;;;;;20.45;13.35;;;0.40;99.90;;;;;;5019225;28;20041;-65
2024/01/07 08:03:54;;;;;;;16.35;12.75;;;0.40;99.90;;;;;;5017801;28;20033;-62
2024/01/07 08:06:19;;;;;;;17.65;12.25;;;0.40;99.90;;;;;;5020242;28;20041;-63
2024/01/07 08:08:45;;;;;;;13.07;11.30;;;0.40;99.90;;;;;;5020313;28;20034;-62
2024/01/07 08:11:10;;;;;;;19.85;10.25;;;0.30;99.90;;;;;;5021060;28;20026;-62
2024/01/07 08:13:37;;;;;;;18.98;12.52;;;0.20;99.90;;;;;;5022572;28;20108;-65
2024/01/07 08:16:05;;;;;;;15.60;12.32;;;0.20;99.90;;;;;;5019057;28;20026;-64
2024/01/07 08:18:31;;;;;;;16.25;12.35;;;0.10;99.90;;;;;;5014423;28;20030;-63
2024/01/07 08:20:57;;;;;;;16.35;12.75;;;0.20;99.90;;;;;;5020752;28;20030;-64
2024/01/07 08:23:24;;;;;;;19.85;13.65;;;0.20;99.90;;;;;;5016794;28;20022;-63
2024/01/07 08:25:51;;;;;;;20.60;13.13;;;0.20;99.90;;;;;;5019536;28;20026;-62
2024/01/07 08:28:17;;;;;;;18.30;12.38;;;0.30;99.90;;;;;;5021158;28;20030;-65
2024/01/07 08:30:42;;;;;;;21.45;14.50;;;0.30;99.90;;;;;;5019169;28;20036;-63
2024/01/07 08:33:08;;;;;;;18.92;13.93;;;0.30;99.90;;;;;;5018329;28;20033;-64
2024/01/07 08:35:34;;;;;;;21.15;14.90;;;0.40;99.90;;;;;;5020343;28;20033;-63
2024/01/07 08:37:59;;;;;;;18.95;13.10;;;0.40;99.90;;;;;;5020533;28;20104;-64
2024/01/07 08:40:25;;;;;;;17.73;12.13;;;0.30;99.90;;;;;;5018518;28;20105;-67
2024/01/07 08:42:50;;;;;;;17.25;10.95;;;0.30;99.90;;;;;;5020556;28;20375;-63
2024/01/07 08:45:16;;;;;;;15.05;11.27;;;0.20;99.90;;;;;;5020238;28;20030;-63
2024/01/07 08:47:42;;;;;;;19.85;13.75;;;0.20;99.90;;;;;;5020334;28;20492;-63
2024/01/07 08:50:08;;;;;;;16.50;11.70;;;0.10;99.90;;;;;;5019391;28;20021;-64
2024/01/07 08:52:35;;;;;;;18.98;13.00;;;0.10;99.90;;;;;;5018078;28;20497;-65
2024/01/07 08:55:02;;;;;;;12.20;8.10;;;0.10;99.90;;;;;;5019452;28;20025;-62
2024/01/07 08:57:27;;;;;;;15.00;10.75;;;0.00;99.90;;;;;;5019396;28;20129;-63
2024/01/07 08:59:53;;;;;;;15.27;9.05;;;0.00;99.90;;;;;;5015293;28;20164;-62
2024/01/07 09:02:19;;;;;;;19.27;12.85;;;0.00;99.90;;;;;;5016748;28;20034;-63
2024/01/07 09:04:44;;;;;;;16.13;11.73;;;-0.10;99.90;;;;;;5021016;28;20398;-63
2024/01/07 09:07:10;;;;;;;24.30;13.65;;;-0.10;99.90;;;;;;5020569;28;20014;-63
2024/01/07 09:09:36;;;;;;;18.13;11.70;;;-0.10;99.90;;;;;;5018744;28;20515;-64
2024/01/07 09:12:03;;;;;;;16.85;11.35;;;0.00;99.90;;;;;;5021629;28;20103;-62
2024/01/07 09:14:29;;;;;;;16.52;11.38;;;0.00;99.90;;;;;;5017758;28;20033;-63
2024/01/07 09:16:55;;;;;;;11.63;7.68;;;0.00;99.90;;;;;;5019101;28;20457;-62
2024/01/07 09:19:21;;;;;;;14.25;10.57;;;-0.10;99.90;;;;;;5019727;28;20033;-62
2024/01/07 09:21:46;;;;;;;18.67;12.52;;;-0.10;99.90;;;;;;5021614;28;20044;-62
2024/01/07 09:24:12;;;;;;;15.50;12.25;;;0.00;99.90;;;;;;5026954;28;20030;-65
2024/01/07 09:26:38;;;;;;;20.42;11.68;;;0.00;99.90;;;;;;5018834;28;20451;-63
2024/01/07 09:29:03;;;;;;;14.68;10.63;;;0.10;99.90;;;;;;5017499;28;20376;-63
2024/01/07 09:31:29;;;;;;;16.60;12.30;;;0.10;99.90;;;;;;5021460;28;20116;-63
2024/01/07 09:33:55;;;;;;;17.98;11.00;;;0.10;99.90;;;;;;5022613;28;20030;-63
2024/01/07 09:36:20;;;;;;;13.30;9.45;;;0.10;99.90;;;;;;5017472;28;20054;-62
2024/01/07 09:38:46;;;;;;;17.35;11.63;;;0.10;99.90;;;;;;5020285;28;20083;-64
2024/01/07 09:41:11;;;;;;;17.83;11.45;;;0.10;99.90;;;;;;5022176;28;20042;-62
2024/01/07 09:43:37;;;;;;;19.67;11.80;;;0.00;99.90;;;;;;5024408;28;20394;-62
2024/01/07 09:46:03;;;;;;;20.25;11.07;;;0.00;99.90;;;;;;5024647;28;20021;-64
2024/01/07 09:48:29;;;;;;;23.33;11.40;;;-0.10;99.90;;;;;;5023209;28;20060;-65
2024/01/07 09:50:57;;;;;;;15.75;10.93;;;-0.20;99.90;;;;;;5022799;28;20049;-62
2024/01/07 09:53:25;;;;;;;16.40;9.77;;;-0.20;99.90;;;;;;5018871;28;20549;-63
2024/01/07 09:56:02;;;;;;;15.75;12.20;;;-0.20;99.90;;;;;;5019523;28;20121;-61
2024/01/07 09:58:28;;;;;;;21.17;12.73;;;-0.20;99.90;;;;;;5020525;28;20092;-64
2024/01/07 10:00:54;;;;;;;16.42;11.45;;;-0.20;99.90;;;;;;5020699;28;21220;-65
2024/01/07 10:03:20;;;;;;;15.70;10.40;;;-0.20;99.90;;;;;;5018406;28;20036;-62
2024/01/07 10:05:45;;;;;;;14.10;11.10;;;-0.20;99.90;;;;;;5019583;28;20030;-64
2024/01/07 10:08:11;;;;;;;15.70;10.48;;;-0.20;99.90;;;;;;5019408;28;20462;-62
2024/01/07 10:10:38;;;;;;;14.23;9.23;;;-0.10;99.90;;;;;;5025090;28;20025;-63
2024/01/07 10:13:03;;;;;;;12.75;10.07;;;-0.10;99.90;;;;;;5023431;28;20018;-64
2024/01/07 10:15:31;;;;;;;14.52;10.20;;;-0.10;99.90;;;;;;5017900;28;20044;-65
2024/01/07 10:18:03;;;;;;;11.35;8.65;;;-0.10;99.90;;;;;;5019031;28;20745;-63
2024/01/07 10:20:30;;;;;;;9.57;7.35;;;-0.10;99.90;;;;;;5020857;28;20042;-64
2024/01/07 10:22:57;;;;;;;11.55;7.53;;;-0.20;99.90;;;;;;5019882;28;20502;-64
2024/01/07 10:25:22;;;;;;;15.30;9.30;;;-0.20;99.90;;;;;;5023093;28;20022;-63
2024/01/07 10:27:48;;;;;;;13.25;8.25;;;-0.30;99.90;;;;;;5019997;28;20088;-61
2024/01/07 10:30:16;;;;;;;8.52;6.25;;;-0.30;99.90;;;;;;5020073;28;20076;-64
2024/01/07 10:32:42;;;;;;;11.15;7.63;;;-0.30;99.90;;;;;;5023269;28;20034;-62
2024/01/07 10:35:18;;;;;;;10.13;6.15;;;-0.30;99.90;;;;;;5022277;28;20080;-62
2024/01/07 10:37:44;;;;;;;7.32;6.50;;;-0.40;99.90;;;;;;5021886;28;20052;-62
2024/01/07 10:40:12;;;;;;;8.95;7.93;;;-0.40;99.90;;;;;;5023305;28;20053;-62
2024/01/07 10:42:38;;;;;;;12.10;8.85;;;-0.40;99.90;;;;;;5024675;28;20040;-63
2024/01/07 10:45:04;;;;;;;11.43;6.50;;;-0.30;99.90;;;;;;5019159;28;20034;-61
2024/01/07 10:47:31;;;;;;;11.52;6.35;;;-0.30;99.90;;;;;;5020930;28;20061;-62
2024/01/07 10:49:59;;;;;;;12.60;7.70;;;-0.30;99.90;;;;;;5016310;28;20706;-63
2024/01/07 10:52:27;;;;;;;13.27;7.20;;;-0.30;99.90;;;;;;5021068;28;20038;-62
2024/01/07 10:54:56;;;;;;;9.77;8.55;;;-0.30;99.90;;;;;;5019998;28;20034;-62
2024/01/07 10:57:40;;;;;;;11.57;8.02;;;-0.20;99.90;;;;;;5018661;28;20545;-63
2024/01/07 11:00:07;;;;;;;10.23;7.72;;;-0.20;99.90;;;;;;5018118;28;20022;-62
2024/01/07 11:03:00;;;;;;;10.02;7.57;;;-0.20;99.90;;;;;;5021707;28;20636;-62
2024/01/07 11:05:36;;;;;;;15.48;8.48;;;-0.10;99.90;;;;;;5024701;28;20053;-64
2024/01/07 11:08:08;;;;;;;9.55;7.18;;;-0.10;99.90;;;;;;5022792;28;20032;-63
2024/01/07 11:10:48;;;;;;;9.00;6.10;;;-0.10;99.90;;;;;;5023475;28;20028;-62
2024/01/07 11:13:33;;;;;;;12.52;7.40;;;-0.10;99.90;;;;;;5021794;28;20032;-63
2024/01/07 11:15:58;;;;;;;11.48;7.93;;;0.00;99.90;;;;;;5023618;28;20045;-64
2024/01/07 11:18:29;;;;;;;8.68;6.50;;;0.00;99.90;;;;;;5023210;28;20030;-63
2024/01/07 11:20:58;;;;;;;;;;;0.00;99.90;;;;;;5023757;28;20132;-61
2024/01/07 11:23:30;;;;;;;5.10;2.80;;;-0.20;99.90;;;;;;5022066;28;19909;-62
2024/01/07 11:26:05;;;;;;;6.72;5.28;;;-0.30;99.90;;;;;;5021575;28;20034;-64
2024/01/07 11:28:49;;;;;;;3.53;2.47;;;-0.40;99.90;;;;;;5022160;28;20103;-63
2024/01/07 11:31:20;;;;;;;6.70;5.78;;;-0.50;99.90;;;;;;5024268;28;20018;-61
2024/01/07 11:33:46;;;;;;;7.03;5.78;;;-0.50;99.90;;;;;;5022493;28;20026;-62
2024/01/07 11:36:14;;;;;;;11.77;8.00;;;-0.50;99.90;;;;;;5023784;28;20042;-63
2024/01/07 11:38:49;;;;;;;8.20;6.47;;;-0.50;99.90;;;;;;5022690;28;20042;-62
2024/01/07 11:41:17;;;;;;;8.25;6.25;;;-0.40;99.90;;;;;;5020736;28;20080;-63
2024/01/07 11:43:59;;;;;;;7.82;6.78;;;-0.40;99.90;;;;;;5022758;28;20413;-62
2024/01/07 11:46:25;;;;;;;8.07;4.85;;;-0.40;99.90;;;;;;5021978;28;20114;-62
2024/01/07 11:48:58;;;;;;;7.75;5.82;;;-0.30;99.90;;;;;;5020954;28;20438;-62
2024/01/07 11:51:30;;;;;;;7.35;6.25;;;-0.30;99.90;;;;;;5021459;28;20026;-62
2024/01/07 11:53:56;;;;;;;11.77;8.30;;;-0.30;99.90;;;;;;5023814;28;20116;-62
2024/01/07 11:56:21;;;;;;;8.50;6.63;;;-0.20;99.90;;;;;;5022535;28;20116;-62
2024/01/07 11:58:47;;;;;;;8.98;6.20;;;-0.20;99.90;;;;;;5024709;28;20034;-63
2024/01/07 12:01:16;;;;;;;10.00;7.03;;;-0.20;99.90;;;;;;5023464;28;20488;-62
2024/01/07 12:03:43;;;;;;;9.88;4.82;;;-0.30;99.90;;;;;;5016700;28;20064;-64
2024/01/07 12:06:13;;;;;;;11.10;7.65;;;-0.40;99.90;;;;;;5021132;28;20061;-62
2024/01/07 12:08:43;;;;;;;11.75;6.35;;;-0.40;99.90;;;;;;5021527;28;20521;-62
2024/01/07 12:11:11;;;;;;;7.28;6.20;;;-0.40;99.90;;;;;;5020939;28;20490;-63
2024/01/07 12:13:37;;;;;;;9.77;6.10;;;-0.40;99.90;;;;;;5023061;28;20026;-64
2024/01/07 12:16:04;;;;;;;10.48;6.70;;;-0.40;99.90;;;;;;5025985;28;20436;-62
2024/01/07 12:18:30;;;;;;;8.63;6.90;;;-0.40;99.90;;;;;;5024241;28;20447;-63
2024/01/07 12:20:59;;;;;;;7.40;6.47;;;-0.30;99.90;;;;;;5021745;28;20112;-62
2024/01/07 12:23:26;;;;;;;6.68;4.65;;;-0.30;99.90;;;;;;5022336;28;20121;-62
2024/01/07 12:25:53;;;;;;;9.05;4.65;;;-0.20;99.90;;;;;;5023575;28;20036;-64
2024/01/07 12:28:19;;;;;;;7.32;6.47;;;-0.20;99.90;;;;;;5021861;28;20028;-62
2024/01/07 12:30:45;;;;;;;4.82;3.85;;;-0.20;99.90;;;;;;5022535;28;20069;-64
2024/01/07 12:33:10;;;;;;;7.38;5.07;;;-0.20;99.90;;;;;;5021158;28;20033;-63
2024/01/07 12:35:36;;;;;;;5.85;5.22;;;-0.30;99.90;;;;;;5020366;28;20440;-63
2024/01/07 12:38:04;;;;;;;9.10;5.97;;;-0.40;99.90;;;;;;5022194;28;20061;-63
2024/01/07 12:40:30;;;;;;;7.07;5.88;;;-0.40;99.90;;;;;;5022864;28;20033;-63
2024/01/07 12:42:57;;;;;;;2.80;2.53;;;-0.40;99.90;;;;;;5021088;28;20021;-60